createdAt,value
2023-05-21T00:05:05.139Z,74864.19
2023-05-21T00:15:10.074Z,74886.44
2023-05-21T00:25:13.394Z,74902.63
2023-05-21T00:35:22.478Z,74930.97
2023-05-21T00:45:30.291Z,74953.22
2023-05-21T00:55:35.873Z,74949.16
2023-05-21T01:05:41.316Z,74965.34
2023-05-21T01:15:46.916Z,74981.53
2023-05-21T01:25:56.405Z,75005.81
2023-05-21T01:36:06.485Z,75024.03
2023-05-21T01:46:16.534Z,75032.13
2023-05-21T01:56:26.376Z,75046.28
2023-05-21T02:06:33.128Z,75062.47
2023-05-21T02:16:38.621Z,75056.41
2023-05-21T02:26:43.799Z,75052.38
2023-05-21T02:36:55.162Z,75064.50
2023-05-21T02:47:08.733Z,75074.63
2023-05-21T02:57:11.700Z,75074.63
2023-05-21T03:07:19.380Z,75050.34
2023-05-21T03:17:24.056Z,75005.81
2023-05-21T03:27:28.580Z,74928.94
2023-05-21T03:37:33.339Z,74912.75
2023-05-21T03:47:42.171Z,74827.75
2023-05-21T03:57:45.995Z,74837.88
2023-05-21T04:07:53.193Z,74799.44
2023-05-21T04:17:58.994Z,74767.06
2023-05-21T04:28:01.719Z,74696.25
2023-05-21T04:38:11.167Z,74607.22
2023-05-21T04:48:15.983Z,74589.00
2023-05-21T04:58:20.673Z,74603.19
2023-05-21T05:08:26.188Z,74532.38
2023-05-21T05:18:30.902Z,74504.03
2023-05-21T05:28:35.887Z,74406.94
2023-05-21T05:38:38.320Z,74297.69
2023-05-21T05:48:48.968Z,74271.38
2023-05-21T05:58:58.855Z,74200.56
2023-05-21T06:09:08.290Z,74196.53
2023-05-21T06:19:12.842Z,74121.69
2023-05-21T06:29:15.716Z,74050.88
2023-05-21T06:39:18.536Z,73990.19
2023-05-21T06:49:21.168Z,73933.53
2023-05-21T06:59:26.908Z,73929.50
2023-05-21T07:09:32.488Z,73909.28
2023-05-21T07:19:38.445Z,73868.81
2023-05-21T07:29:40.861Z,73836.44
2023-05-21T07:39:43.592Z,73773.75
2023-05-21T07:49:47.990Z,73824.31
2023-05-21T07:59:51.433Z,73820.25
2023-05-21T08:09:56.567Z,73852.63
2023-05-21T08:20:01.523Z,73802.06
2023-05-21T08:30:08.387Z,73832.41
2023-05-21T08:40:12.771Z,73844.53
2023-05-21T08:50:21.256Z,73876.91
2023-05-21T09:00:25.991Z,73965.91
2023-05-21T09:10:36.413Z,73949.72
2023-05-21T09:20:45.249Z,73889.03
2023-05-21T09:30:51.294Z,74000.31
2023-05-21T09:40:59.269Z,73925.44
2023-05-21T09:51:13.172Z,74022.56
2023-05-21T10:01:20.096Z,74002.31
2023-05-21T10:11:31.227Z,73949.72
2023-05-21T10:21:39.090Z,73982.09
2023-05-21T10:31:50.199Z,73959.84
2023-05-21T10:42:01.394Z,73978.03
2023-05-21T10:52:24.276Z,73978.03
2023-05-21T11:02:27.141Z,73965.91
2023-05-21T11:12:38.032Z,73955.78
2023-05-21T11:22:40.553Z,73951.75
2023-05-21T11:33:11.497Z,73921.41
2023-05-21T11:43:16.370Z,73919.38
2023-05-21T11:53:23.455Z,73949.72
2023-05-21T12:03:27.504Z,73919.38
2023-05-21T12:13:34.644Z,73941.63
2023-05-21T12:23:38.164Z,73933.53
2023-05-21T12:33:41.668Z,73897.13
2023-05-21T12:43:44.247Z,73895.09
2023-05-21T12:53:54.171Z,73911.28
2023-05-21T13:04:01.697Z,73872.84
2023-05-21T13:14:06.415Z,73891.06
2023-05-21T13:24:08.824Z,73889.03
2023-05-21T13:34:13.837Z,73872.84
2023-05-21T13:44:21.026Z,73893.09
2023-05-21T13:54:25.477Z,73891.06
2023-05-21T14:04:30.084Z,73856.69
2023-05-21T14:14:34.657Z,73864.75
2023-05-21T14:24:36.892Z,73889.03
2023-05-21T14:34:44.192Z,73868.81
2023-05-21T14:44:49.234Z,73848.59
2023-05-21T14:54:53.972Z,73891.06
2023-05-21T15:04:58.940Z,73882.97
2023-05-21T15:15:08.468Z,73878.94
2023-05-21T15:25:13.150Z,73880.94
2023-05-21T15:35:15.720Z,73889.03
2023-05-21T15:45:20.639Z,73885.00
2023-05-21T15:55:28.280Z,73905.22
2023-05-21T16:05:33.188Z,73909.28
2023-05-21T16:15:35.701Z,73917.34
2023-05-21T16:25:38.623Z,73917.34
2023-05-21T16:35:42.223Z,73923.44
2023-05-21T16:45:46.773Z,73927.47
2023-05-21T16:55:52.482Z,73943.66
2023-05-21T17:06:00.279Z,73967.94
2023-05-21T17:16:04.769Z,73982.09
2023-05-21T17:26:11.337Z,74004.34
2023-05-21T17:36:16.609Z,74014.47
2023-05-21T17:46:21.388Z,74026.59
2023-05-21T17:56:29.425Z,74040.75
2023-05-21T18:06:33.953Z,74063.00
2023-05-21T18:16:38.849Z,74075.16
2023-05-21T18:26:47.145Z,74099.44
2023-05-21T18:36:55.177Z,74117.63
2023-05-21T18:46:58.052Z,74150.00
2023-05-21T18:57:02.862Z,74170.22
2023-05-21T19:07:10.267Z,74196.53
2023-05-21T19:17:14.922Z,74208.66
2023-05-21T19:27:18.324Z,74226.88
2023-05-21T19:37:20.662Z,74241.03
2023-05-21T19:47:25.060Z,74257.22
2023-05-21T19:57:27.352Z,74261.25
2023-05-21T20:07:30.795Z,74271.38
2023-05-21T20:17:34.509Z,74287.56
2023-05-21T20:27:39.181Z,74309.81
2023-05-21T20:37:43.566Z,74326.00
2023-05-21T20:47:50.271Z,74350.28
2023-05-21T20:57:57.958Z,74378.59
2023-05-21T21:08:02.679Z,74394.78
2023-05-21T21:18:09.967Z,74394.78
2023-05-21T21:28:12.252Z,74408.94
2023-05-21T21:38:15.062Z,74419.06
2023-05-21T21:48:22.677Z,74443.34
2023-05-21T21:58:27.832Z,74479.75
2023-05-21T22:08:36.933Z,74493.94
2023-05-21T22:18:42.313Z,74500.00
2023-05-21T22:28:49.475Z,74506.06
2023-05-21T22:38:51.701Z,74508.09
2023-05-21T22:48:56.151Z,74530.34
2023-05-21T22:58:58.711Z,74540.47
2023-05-21T23:09:03.413Z,74552.59
2023-05-21T23:19:05.667Z,74580.94
2023-05-21T23:29:12.685Z,74589.00
2023-05-21T23:39:15.211Z,74593.06
2023-05-21T23:49:17.450Z,74601.16
2023-05-21T23:59:22.050Z,74599.13
